createdAt,value
2023-01-17T00:01:51.002Z,6.79
2023-01-17T00:06:47.207Z,6.8
2023-01-17T00:12:01.546Z,6.88
2023-01-17T00:17:06.655Z,6.88
2023-01-17T00:22:07.914Z,6.85
2023-01-17T00:27:04.197Z,7.1
2023-01-17T00:32:00.432Z,6.99
2023-01-17T00:36:56.743Z,6.98
2023-01-17T00:41:53.019Z,6.72
2023-01-17T00:46:49.271Z,6.89
2023-01-17T00:51:45.447Z,6.99
2023-01-17T00:56:41.704Z,7.37
2023-01-17T01:01:38.196Z,7.18
2023-01-17T01:06:36.265Z,7.53
2023-01-17T01:11:32.543Z,7.5
2023-01-17T01:16:30.820Z,7.69
2023-01-17T01:21:27.007Z,7.68
2023-01-17T01:26:23.279Z,7.6
2023-01-17T01:31:19.598Z,7.42
2023-01-17T01:36:15.779Z,7.5
2023-01-17T01:41:14.065Z,7.53
2023-01-17T01:46:11.310Z,7.52
2023-01-17T01:51:09.635Z,7.42
2023-01-17T01:56:09.853Z,7.39
2023-01-17T02:01:08.234Z,7.11
2023-01-17T02:06:08.306Z,7.11
2023-01-17T02:11:04.592Z,7.02
2023-01-17T02:16:06.917Z,7.13
2023-01-17T02:21:18.071Z,6.86
2023-01-17T02:26:31.272Z,7.03
2023-01-17T02:31:33.547Z,7.23
2023-01-17T02:36:36.815Z,7.31
2023-01-17T02:41:35.985Z,7.63
2023-01-17T02:46:32.285Z,7.59
2023-01-17T02:51:49.561Z,7.66
2023-01-17T02:56:56.692Z,7.75
2023-01-17T03:02:05.165Z,7.92
2023-01-17T03:07:07.169Z,7.54
2023-01-17T03:12:04.461Z,6.84
2023-01-17T03:17:02.671Z,6.58
2023-01-17T03:21:58.939Z,6.54
2023-01-17T03:26:55.197Z,6.67
2023-01-17T03:31:51.477Z,6.73
2023-01-17T03:36:47.766Z,7.7
2023-01-17T03:41:43.982Z,7.88
2023-01-17T03:46:44.250Z,7.59
2023-01-17T03:51:40.476Z,7.63
2023-01-17T03:56:36.739Z,7.72
2023-01-17T04:01:33.175Z,7.46
2023-01-17T04:06:29.299Z,7.54
2023-01-17T04:11:25.551Z,7.85
2023-01-17T04:16:25.827Z,7.91
2023-01-17T04:21:22.049Z,8.16
2023-01-17T04:26:18.291Z,8.05
2023-01-17T04:31:15.684Z,8.07
2023-01-17T04:36:11.846Z,8.04
2023-01-17T04:41:08.107Z,7.76
2023-01-17T04:46:04.401Z,7.43
2023-01-17T04:51:00.610Z,7.55
2023-01-17T04:55:56.860Z,7.81
2023-01-17T05:00:53.227Z,7.28
2023-01-17T05:05:49.371Z,7.35
2023-01-17T05:10:45.623Z,7.37
2023-01-17T05:15:41.939Z,7.01
2023-01-17T05:20:38.162Z,6.82
2023-01-17T05:25:34.444Z,6.71
2023-01-17T05:30:31.673Z,6.5
2023-01-17T05:35:28.949Z,6.57
2023-01-17T05:40:26.210Z,6.75
2023-01-17T05:45:22.428Z,6.79
2023-01-17T05:50:19.713Z,6.63
2023-01-17T05:55:15.958Z,6.48
2023-01-17T06:00:13.197Z,6.29
2023-01-17T06:05:09.468Z,6.39
2023-01-17T06:10:05.708Z,6.38
2023-01-17T06:15:01.997Z,6.27
2023-01-17T06:19:58.217Z,6.18
2023-01-17T06:24:54.490Z,6.1
2023-01-17T06:29:50.793Z,6.37
2023-01-17T06:34:47.024Z,6.46
2023-01-17T06:39:43.270Z,6.83
2023-01-17T06:44:40.619Z,6.84
2023-01-17T06:49:36.782Z,6.91
2023-01-17T06:54:33.079Z,6.7
2023-01-17T06:59:29.359Z,6.76
2023-01-17T07:04:25.570Z,7.11
2023-01-17T07:09:21.868Z,7.14
2023-01-17T07:14:18.092Z,7.26
2023-01-17T07:19:14.338Z,7.45
2023-01-17T07:24:10.593Z,7.48
2023-01-17T07:29:06.919Z,7.89
2023-01-17T07:34:03.125Z,7.49
2023-01-17T07:38:59.382Z,7.41
2023-01-17T07:43:56.432Z,7.59
2023-01-17T07:48:54.316Z,7.67
2023-01-17T07:53:50.165Z,9.66
2023-01-17T07:58:46.406Z,10.55
2023-01-17T08:03:43.722Z,10.75
2023-01-17T08:08:39.912Z,10.24
2023-01-17T08:13:37.186Z,9.39
2023-01-17T08:18:33.631Z,9.04
2023-01-17T08:23:29.762Z,8.58
2023-01-17T08:28:27.985Z,8.76
2023-01-17T08:33:24.265Z,8.98
2023-01-17T08:38:24.531Z,9.05
2023-01-17T08:43:25.758Z,9.29
2023-01-17T08:48:21.965Z,9.72
2023-01-17T08:53:18.238Z,9.55
2023-01-17T08:58:14.491Z,9.49
2023-01-17T09:03:12.019Z,9.6
2023-01-17T09:08:08.045Z,9.59
2023-01-17T09:13:05.296Z,9.74
2023-01-17T09:18:01.557Z,9.87
2023-01-17T09:22:57.806Z,9.9
2023-01-17T09:27:54.098Z,9.9
2023-01-17T09:32:52.292Z,10.01
2023-01-17T09:37:49.580Z,10.31
2023-01-17T09:42:53.863Z,10.54
2023-01-17T09:47:54.067Z,10.88
2023-01-17T09:52:54.328Z,10.69
2023-01-17T09:58:00.653Z,10.71
2023-01-17T10:03:13.857Z,11.02
2023-01-17T10:08:19.999Z,11.42
2023-01-17T10:13:25.264Z,11.22
2023-01-17T10:18:34.489Z,11.19
2023-01-17T10:23:46.680Z,12.08
2023-01-17T10:33:53.167Z,12.95
2023-01-17T10:38:51.437Z,13.21
2023-01-17T10:49:10.869Z,13.85
2023-01-17T10:54:19.130Z,13.03
2023-01-17T10:59:17.411Z,12.91
2023-01-17T11:04:15.622Z,13.65
2023-01-17T11:09:20.889Z,13.62
2023-01-17T11:14:19.374Z,14.42
2023-01-17T11:19:17.409Z,14.97
2023-01-17T11:24:18.586Z,15.12
2023-01-17T11:29:15.848Z,15.18
2023-01-17T11:34:15.183Z,15.25
2023-01-17T11:39:23.348Z,15.47
2023-01-17T11:44:24.206Z,14.32
2023-01-17T11:49:23.881Z,14.38
2023-01-17T11:54:23.111Z,14.57
2023-01-17T11:59:24.346Z,14.84
2023-01-17T12:04:38.615Z,14.12
2023-01-17T12:09:42.785Z,13.26
2023-01-17T12:14:50.020Z,12.89
2023-01-17T12:19:57.286Z,12.48
2023-01-17T12:25:11.456Z,12.47
2023-01-17T12:30:23.727Z,12.5
2023-01-17T12:35:25.994Z,12.22
2023-01-17T12:40:29.198Z,11.89
2023-01-17T12:45:31.470Z,11.74
2023-01-17T12:50:37.672Z,11.99
2023-01-17T12:55:41.919Z,11.75
2023-01-17T12:59:17.368Z,11.57
2023-01-17T13:04:19.686Z,11.56
2023-01-17T13:09:26.080Z,11.37
2023-01-17T13:14:22.152Z,11.49
2023-01-17T13:19:23.387Z,11.65
2023-01-17T13:24:27.625Z,11.45
2023-01-17T13:29:33.888Z,11.46
2023-01-17T13:34:45.093Z,11.74
2023-01-17T13:39:51.263Z,11.47
2023-01-17T13:44:47.579Z,11.52
2023-01-17T13:49:52.791Z,11.49
2023-01-17T14:00:05.248Z,11.32
2023-01-17T14:05:12.676Z,11.18
2023-01-17T14:10:21.750Z,10.99
2023-01-17T14:15:21.010Z,10.96
2023-01-17T14:20:28.174Z,10.87
2023-01-17T14:25:29.433Z,10.81
2023-01-17T14:30:28.709Z,10.77
2023-01-17T14:35:26.944Z,10.7
2023-01-17T14:40:24.238Z,10.72
2023-01-17T14:45:23.444Z,10.64
2023-01-17T14:50:21.837Z,10.81
2023-01-17T14:55:19.989Z,10.58
2023-01-17T15:00:18.247Z,10.67
2023-01-17T15:05:15.469Z,10.67
2023-01-17T15:10:15.788Z,10.55
2023-01-17T15:15:26.083Z,10.45
2023-01-17T15:20:25.215Z,10.54
2023-01-17T15:25:21.514Z,10.4
2023-01-17T15:30:18.719Z,10.45
2023-01-17T15:35:15.988Z,10.51
2023-01-17T15:40:16.282Z,10.47
2023-01-17T15:45:15.495Z,10.41
2023-01-17T15:50:25.737Z,10.36
2023-01-17T15:55:22.439Z,10.19
2023-01-17T16:00:20.334Z,10.19
2023-01-17T16:05:26.487Z,9.96
2023-01-17T16:10:24.713Z,9.99
2023-01-17T16:15:21.994Z,10.08
2023-01-17T16:20:20.249Z,10.19
2023-01-17T16:25:17.471Z,10.08
2023-01-17T16:30:14.771Z,10.12
2023-01-17T16:35:13.988Z,10.15
2023-01-17T16:40:11.804Z,9.94
2023-01-17T16:45:08.595Z,10.01
2023-01-17T16:50:04.769Z,9.75
2023-01-17T16:55:01.078Z,9.84
2023-01-17T16:59:57.284Z,9.91
2023-01-17T17:04:53.568Z,9.99
2023-01-17T17:09:50.378Z,9.88
2023-01-17T17:14:47.075Z,9.83
2023-01-17T17:19:43.293Z,9.72
2023-01-17T17:24:39.595Z,9.8
2023-01-17T17:29:36.827Z,9.76
2023-01-17T17:34:33.078Z,9.78
2023-01-17T17:39:29.360Z,9.71
2023-01-17T17:44:25.614Z,9.67
2023-01-17T17:49:21.865Z,9.47
2023-01-17T17:54:19.120Z,9.44
2023-01-17T17:59:16.367Z,9.72
2023-01-17T18:04:12.802Z,9.58
2023-01-17T18:09:11.257Z,9.48
2023-01-17T18:14:08.160Z,9.53
2023-01-17T18:19:04.422Z,9.61
2023-01-17T18:24:01.688Z,9.56
2023-01-17T18:28:58.935Z,9.45
2023-01-17T18:33:56.218Z,9.46
2023-01-17T18:38:52.447Z,9.4
2023-01-17T18:43:48.751Z,9.44
2023-01-17T18:48:44.973Z,9.43
2023-01-17T18:53:42.219Z,9.36
2023-01-17T18:58:39.489Z,9.33
2023-01-17T19:03:37.013Z,9.22
2023-01-17T19:08:33.996Z,9.29
2023-01-17T19:13:31.284Z,9.09
2023-01-17T19:18:27.563Z,9.02
2023-01-17T19:23:23.798Z,8.95
2023-01-17T19:28:20.022Z,8.85
2023-01-17T19:33:16.298Z,8.77
2023-01-17T19:38:15.567Z,8.8
2023-01-17T19:43:11.896Z,8.78
2023-01-17T19:48:08.070Z,8.81
2023-01-17T19:53:03.330Z,8.92
2023-01-17T19:58:01.581Z,8.94
2023-01-17T20:02:57.879Z,9.12
2023-01-17T20:07:54.537Z,9.33
2023-01-17T20:12:51.362Z,9.4
2023-01-17T20:17:47.630Z,9.43
2023-01-17T20:22:44.956Z,9.71
2023-01-17T20:27:41.128Z,9.95
2023-01-17T20:32:36.420Z,9.97
2023-01-17T20:37:32.645Z,9.96
2023-01-17T20:42:29.900Z,10
2023-01-17T20:47:26.180Z,10.12
2023-01-17T20:52:22.459Z,10.12
2023-01-17T20:57:19.302Z,10.06
2023-01-17T21:02:16.055Z,10.07
2023-01-17T21:07:13.225Z,10.22
2023-01-17T21:12:09.448Z,10.31
2023-01-17T21:17:05.743Z,10.38
2023-01-17T21:22:01.991Z,10.42
2023-01-17T21:26:59.285Z,10.6
2023-01-17T21:31:56.488Z,10.52
2023-01-17T21:36:53.781Z,10.34
2023-01-17T21:41:51.113Z,10.24
2023-01-17T21:46:49.186Z,10.21
2023-01-17T21:51:46.585Z,10.18
2023-01-17T21:56:43.819Z,10.16
2023-01-17T22:01:44.176Z,10.01
2023-01-17T22:06:40.290Z,9.89
2023-01-17T22:11:37.553Z,9.73
2023-01-17T22:16:34.806Z,9.68
2023-01-17T22:21:34.084Z,9.63
2023-01-17T22:26:33.343Z,9.58
2023-01-17T22:31:29.565Z,9.69
2023-01-17T22:36:30.831Z,10.01
2023-01-17T22:41:32.169Z,10.04
2023-01-17T22:46:31.436Z,9.98
2023-01-17T22:51:27.625Z,9.82
2023-01-17T22:56:28.840Z,9.93
2023-01-17T23:01:26.172Z,9.96
2023-01-17T23:06:23.358Z,9.89
2023-01-17T23:11:22.597Z,9.76
2023-01-17T23:16:18.906Z,9.75
2023-01-17T23:21:15.126Z,9.78
2023-01-17T23:26:11.396Z,9.79
2023-01-17T23:31:08.726Z,9.78
2023-01-17T23:36:05.897Z,9.8
2023-01-17T23:41:04.192Z,9.8
2023-01-17T23:46:00.442Z,9.84
2023-01-17T23:50:57.663Z,10.01
2023-01-17T23:55:53.940Z,9.97
